createdAt,value
2023-01-23T00:09:46.252Z,101712.34
2023-01-23T00:19:47.460Z,101710.63
2023-01-23T00:29:48.791Z,101713.66
2023-01-23T00:39:50.932Z,101702.25
2023-01-23T00:49:53.939Z,101713.09
2023-01-23T00:59:55.181Z,101709.81
2023-01-23T01:09:56.379Z,101710.56
2023-01-23T01:19:57.576Z,101712.63
2023-01-23T01:29:58.788Z,101712.69
2023-01-23T01:40:00.185Z,101721.16
2023-01-23T01:50:01.387Z,101717.91
2023-01-23T02:00:02.597Z,101735.44
2023-01-23T02:10:03.802Z,101746.09
2023-01-23T02:20:05.112Z,101742.53
2023-01-23T02:30:07.849Z,101743.84
2023-01-23T02:40:09.070Z,101757.53
2023-01-23T02:50:10.296Z,101754.56
2023-01-23T03:00:17.597Z,101751.19
2023-01-23T03:10:19.312Z,101744.28
2023-01-23T03:20:23.117Z,101751.19
2023-01-23T03:30:25.549Z,101748.59
2023-01-23T03:40:45.421Z,101747.06
2023-01-23T03:50:46.671Z,101729.72
2023-01-23T04:00:47.916Z,101735.06
2023-01-23T04:10:49.189Z,101732.34
2023-01-23T04:20:50.470Z,101747.22
2023-01-23T04:30:51.876Z,101752.38
2023-01-23T04:40:53.152Z,101768.19
2023-01-23T04:50:54.449Z,101785.63
2023-01-23T05:00:55.698Z,101792.34
2023-01-23T05:10:56.941Z,101791.81
2023-01-23T05:20:58.154Z,101788.28
2023-01-23T05:30:59.461Z,101788.28
2023-01-23T05:41:00.723Z,101807.72
2023-01-23T05:51:01.971Z,101805.13
2023-01-23T06:01:03.538Z,101802.41
2023-01-23T06:11:04.829Z,101804.53
2023-01-23T06:21:06.193Z,101804.63
2023-01-23T06:31:09.311Z,101808.59
2023-01-23T06:41:10.641Z,101816.84
2023-01-23T06:51:11.968Z,101812.41
2023-01-23T07:01:13.294Z,101833.72
2023-01-23T07:11:14.632Z,101850.28
2023-01-23T07:21:15.846Z,101881.88
2023-01-23T07:31:17.160Z,101885.50
2023-01-23T07:41:18.396Z,101890.72
2023-01-23T07:51:19.628Z,101895.75
2023-01-23T08:01:20.890Z,101894.34
2023-01-23T08:11:23.933Z,101888.25
2023-01-23T08:21:25.253Z,101897.50
2023-01-23T08:31:26.543Z,101896.78
2023-01-23T08:41:27.915Z,101885.63
2023-01-23T08:51:29.289Z,101890.69
2023-01-23T09:01:30.543Z,101894.44
2023-01-23T09:11:31.802Z,101885.25
2023-01-23T09:21:33.013Z,101895.25
2023-01-23T09:31:34.261Z,101896.84
2023-01-23T09:41:35.508Z,101915.53
2023-01-23T09:51:36.741Z,101921.38
2023-01-23T10:01:37.999Z,101909.53
2023-01-23T10:11:42.131Z,101892.47
2023-01-23T10:21:43.457Z,101901.84
2023-01-23T10:31:44.779Z,101900.66
2023-01-23T10:41:48.441Z,101912.03
2023-01-23T10:51:50.620Z,101903.63
2023-01-23T11:01:57.400Z,101911.50
2023-01-23T11:12:00.149Z,101910.81
2023-01-23T11:22:01.405Z,101909.22
2023-01-23T11:32:09.786Z,101914.09
2023-01-23T11:42:11.215Z,101898.25
2023-01-23T11:52:12.453Z,101900.47
2023-01-23T12:02:13.717Z,101866.19
2023-01-23T12:12:15.011Z,101837.47
2023-01-23T12:22:16.321Z,101843.66
2023-01-23T12:32:17.649Z,101829.47
2023-01-23T12:42:18.938Z,101832.13
2023-01-23T12:52:20.134Z,101824.25
2023-01-23T13:02:21.418Z,101806.06
2023-01-23T13:12:22.868Z,101809.47
2023-01-23T13:22:28.661Z,101798.72
2023-01-23T13:32:31.927Z,101801.66
2023-01-23T13:42:33.231Z,101801.06
2023-01-23T14:23:58.074Z,101779.53
2023-01-23T14:34:09.246Z,101768.06
2023-01-23T14:44:11.185Z,101760.09
2023-01-23T14:54:12.904Z,101763.91
2023-01-23T15:04:14.120Z,101774.34
2023-01-23T15:14:15.360Z,101779.91
2023-01-23T15:24:16.866Z,101783.94
2023-01-23T15:34:18.236Z,101785.00
2023-01-23T15:44:19.526Z,101793.84
2023-01-23T15:54:20.804Z,101799.69
2023-01-23T16:04:22.082Z,101806.50
2023-01-23T16:14:23.453Z,101809.09
2023-01-23T16:24:25.664Z,101815.09
2023-01-23T16:34:26.947Z,101808.50
2023-01-23T16:44:28.280Z,101818.84
2023-01-23T16:54:29.487Z,101817.22
2023-01-23T17:04:30.787Z,101824.50
2023-01-23T17:14:32.175Z,101826.69
2023-01-23T17:24:33.406Z,101835.63
2023-01-23T17:34:41.539Z,101844.31
2023-01-23T17:44:50.522Z,101852.50
2023-01-23T17:54:51.981Z,101866.97
2023-01-23T18:04:53.195Z,101866.88
2023-01-23T18:14:55.743Z,101866.38
2023-01-23T18:24:57.075Z,101871.41
2023-01-23T18:34:58.335Z,101874.00
2023-01-23T18:44:59.624Z,101877.06
2023-01-23T18:55:00.959Z,101891.88
2023-01-23T19:05:02.256Z,101884.75
2023-01-23T19:15:03.518Z,101874.28
2023-01-23T19:25:05.365Z,101873.41
2023-01-23T19:35:14.069Z,101871.59
2023-01-23T19:45:15.713Z,101889.31
2023-01-23T19:55:17.382Z,101871.28
2023-01-23T20:05:19.092Z,101876.19
2023-01-23T20:15:20.894Z,101881.16
2023-01-23T20:25:22.579Z,101870.66
2023-01-23T20:35:24.060Z,101868.09
2023-01-23T20:45:26.610Z,101862.66
2023-01-23T20:55:27.821Z,101869.38
2023-01-23T21:05:29.076Z,101872.88
2023-01-23T21:15:33.062Z,101882.50
2023-01-23T21:25:34.463Z,101885.44
2023-01-23T21:35:35.780Z,101896.78
2023-01-23T21:45:37.063Z,101903.16
2023-01-23T21:55:38.291Z,101925.38
2023-01-23T22:05:39.652Z,101916.66
2023-01-23T22:15:40.869Z,101913.56
2023-01-23T22:25:42.102Z,101925.66
2023-01-23T22:35:43.301Z,101941.72
2023-01-23T22:45:44.507Z,101946.94
2023-01-23T22:55:45.730Z,101941.97
2023-01-23T23:05:47.044Z,101940.59
2023-01-23T23:15:48.245Z,101936.91
2023-01-23T23:25:49.462Z,101925.25
2023-01-23T23:35:50.681Z,101930.81
2023-01-23T23:45:51.927Z,101935.50
2023-01-23T23:55:53.129Z,101921.63
